Covington Muni Information

FAA: CVC - ICAO: KCVC

Covington Muni (Airport) Location

State Georgia
County Newton
City Atlanta
Covington Muni (Airport) is 35 miles east-southeast of Atlanta, GA.
Latitude 33-37-56.0910N
Longitude 083-50-47.8280W
Elevation 819ft

Covington Muni METARs

METAR KCVC 251635Z AUTO 29004KT 10SM OVC100 11/02 A3002 RMK AO2
Altimeter 30.02"
Temperature 11.0°C (51.8°F)
Wind 290° at 4KT
Clouds overcast at 10,000ft
Visibility 10.0mi
Time observed: 2022-01-25T16:35:00Z

Covington Muni (Airport) Details

Status Operational
Activation April 1961
Ownership Public
Usage Public
Chart ATLANTA
ATC on-site No
Beacon schedule sunset-sunrise
Beacon color clear green

Covington Muni (Airport) Contacts

Owner CITY OF COVINGTON
Owner address CITY HALL, PO BOX 1527, COVINGTON, GA 30014
Owner phone 770-385-2000
Manager MARK JOHNSON
Manager address 425 14TH ST NW, ATLANTA, GA 30318
Manager phone 757-818-0774

Covington Muni Radio Frequencies

Covington Muni (Airport) Radio Frequencies

UNICOM 123
Common traffic advisory frequency (CTAF) 123